sensor_id;sensor_type;location;lat;lon;timestamp;P1;durP1;ratioP1;P2;durP2;ratioP2
28078;SDS011;15388;42.238;24.684;2023-02-01T19:05:41;8.03;;;6.43;;
28078;SDS011;15388;42.238;24.684;2023-02-01T19:16:07;13.00;;;7.95;;
28078;SDS011;15388;42.238;24.684;2023-02-01T19:18:34;11.52;;;5.85;;
28078;SDS011;15388;42.238;24.684;2023-02-01T19:21:03;12.43;;;6.28;;
28078;SDS011;15388;42.238;24.684;2023-02-01T19:23:29;8.75;;;5.63;;
28078;SDS011;15388;42.238;24.684;2023-02-01T19:25:54;20.10;;;6.60;;
28078;SDS011;15388;42.238;24.684;2023-02-01T19:28:19;13.43;;;5.60;;
28078;SDS011;15388;42.238;24.684;2023-02-01T19:30:45;10.30;;;6.40;;
28078;SDS011;15388;42.238;24.684;2023-02-01T19:33:10;26.13;;;8.95;;
28078;SDS011;15388;42.238;24.684;2023-02-01T19:35:35;11.50;;;7.15;;
28078;SDS011;15388;42.238;24.684;2023-02-01T19:38:01;20.35;;;8.30;;
28078;SDS011;15388;42.238;24.684;2023-02-01T19:40:26;11.82;;;6.85;;
28078;SDS011;15388;42.238;24.684;2023-02-01T19:42:52;10.93;;;6.90;;
28078;SDS011;15388;42.238;24.684;2023-02-01T19:45:17;15.25;;;7.45;;
28078;SDS011;15388;42.238;24.684;2023-02-01T19:47:44;12.68;;;7.50;;
28078;SDS011;15388;42.238;24.684;2023-02-01T19:50:10;15.82;;;9.93;;
28078;SDS011;15388;42.238;24.684;2023-02-01T19:52:39;17.73;;;11.32;;
28078;SDS011;15388;42.238;24.684;2023-02-01T19:55:04;17.67;;;11.27;;
28078;SDS011;15388;42.238;24.684;2023-02-01T19:57:30;21.77;;;8.77;;
28078;SDS011;15388;42.238;24.684;2023-02-01T19:59:55;19.55;;;12.00;;
28078;SDS011;15388;42.238;24.684;2023-02-01T20:02:20;59.03;;;30.33;;
28078;SDS011;15388;42.238;24.684;2023-02-01T20:04:46;38.55;;;24.90;;
28078;SDS011;15388;42.238;24.684;2023-02-01T20:07:12;27.17;;;17.90;;
28078;SDS011;15388;42.238;24.684;2023-02-01T20:09:38;19.23;;;11.80;;
28078;SDS011;15388;42.238;24.684;2023-02-01T20:12:05;21.02;;;9.82;;
28078;SDS011;15388;42.238;24.684;2023-02-01T20:14:31;30.52;;;15.35;;
28078;SDS011;15388;42.238;24.684;2023-02-01T20:16:56;23.77;;;13.70;;
28078;SDS011;15388;42.238;24.684;2023-02-01T20:19:21;16.40;;;7.85;;
28078;SDS011;15388;42.238;24.684;2023-02-01T20:21:47;13.95;;;7.45;;
28078;SDS011;15388;42.238;24.684;2023-02-01T20:24:13;59.70;;;26.40;;
28078;SDS011;15388;42.238;24.684;2023-02-01T20:26:39;53.10;;;25.08;;
28078;SDS011;15388;42.238;24.684;2023-02-01T20:29:04;25.23;;;12.60;;
28078;SDS011;15388;42.238;24.684;2023-02-01T20:31:30;35.35;;;17.58;;
28078;SDS011;15388;42.238;24.684;2023-02-01T20:33:56;34.67;;;18.13;;
28078;SDS011;15388;42.238;24.684;2023-02-01T20:36:22;37.42;;;18.85;;
28078;SDS011;15388;42.238;24.684;2023-02-01T20:38:47;33.58;;;17.33;;
28078;SDS011;15388;42.238;24.684;2023-02-01T20:41:12;26.17;;;13.30;;
28078;SDS011;15388;42.238;24.684;2023-02-01T20:43:38;21.50;;;11.18;;
28078;SDS011;15388;42.238;24.684;2023-02-01T20:46:03;38.28;;;17.15;;
28078;SDS011;15388;42.238;24.684;2023-02-01T20:48:28;25.75;;;11.93;;
28078;SDS011;15388;42.238;24.684;2023-02-01T20:50:54;23.45;;;10.43;;
28078;SDS011;15388;42.238;24.684;2023-02-01T20:53:20;27.95;;;13.95;;
28078;SDS011;15388;42.238;24.684;2023-02-01T20:55:45;18.80;;;8.77;;
28078;SDS011;15388;42.238;24.684;2023-02-01T20:58:11;16.60;;;10.57;;
28078;SDS011;15388;42.238;24.684;2023-02-01T21:00:36;29.95;;;14.43;;
28078;SDS011;15388;42.238;24.684;2023-02-01T21:03:02;22.08;;;10.88;;
28078;SDS011;15388;42.238;24.684;2023-02-01T21:05:29;14.45;;;8.48;;
28078;SDS011;15388;42.238;24.684;2023-02-01T21:08:04;21.05;;;11.13;;
28078;SDS011;15388;42.238;24.684;2023-02-01T21:10:30;15.68;;;8.27;;
28078;SDS011;15388;42.238;24.684;2023-02-01T21:12:55;17.67;;;9.18;;
28078;SDS011;15388;42.238;24.684;2023-02-01T21:15:20;16.08;;;8.13;;
28078;SDS011;15388;42.238;24.684;2023-02-01T21:17:48;19.75;;;10.02;;
28078;SDS011;15388;42.238;24.684;2023-02-01T21:20:13;21.20;;;9.30;;
28078;SDS011;15388;42.238;24.684;2023-02-01T21:22:38;46.60;;;18.38;;
28078;SDS011;15388;42.238;24.684;2023-02-01T21:25:04;37.38;;;14.02;;
28078;SDS011;15388;42.238;24.684;2023-02-01T21:27:29;42.45;;;17.92;;
28078;SDS011;15388;42.238;24.684;2023-02-01T21:29:54;32.63;;;14.43;;
28078;SDS011;15388;42.238;24.684;2023-02-01T21:32:19;17.15;;;8.68;;
28078;SDS011;15388;42.238;24.684;2023-02-01T21:34:45;36.40;;;16.75;;
28078;SDS011;15388;42.238;24.684;2023-02-01T21:37:10;33.72;;;14.60;;
28078;SDS011;15388;42.238;24.684;2023-02-01T21:39:35;33.67;;;18.67;;
28078;SDS011;15388;42.238;24.684;2023-02-01T21:42:01;46.58;;;21.80;;
28078;SDS011;15388;42.238;24.684;2023-02-01T21:44:38;36.22;;;14.63;;
28078;SDS011;15388;42.238;24.684;2023-02-01T21:47:04;34.53;;;14.65;;
28078;SDS011;15388;42.238;24.684;2023-02-01T21:49:29;19.98;;;9.65;;
28078;SDS011;15388;42.238;24.684;2023-02-01T21:51:54;42.78;;;18.60;;
28078;SDS011;15388;42.238;24.684;2023-02-01T21:54:20;37.30;;;16.90;;
28078;SDS011;15388;42.238;24.684;2023-02-01T21:56:45;36.33;;;17.70;;
28078;SDS011;15388;42.238;24.684;2023-02-01T21:59:11;15.95;;;8.13;;
28078;SDS011;15388;42.238;24.684;2023-02-01T22:01:37;9.45;;;5.38;;
28078;SDS011;15388;42.238;24.684;2023-02-01T22:04:03;9.65;;;5.70;;
28078;SDS011;15388;42.238;24.684;2023-02-01T22:06:30;8.50;;;5.00;;
28078;SDS011;15388;42.238;24.684;2023-02-01T22:11:21;9.57;;;4.55;;
28078;SDS011;15388;42.238;24.684;2023-02-01T22:13:46;11.63;;;6.95;;
28078;SDS011;15388;42.238;24.684;2023-02-01T22:16:11;10.60;;;6.05;;
28078;SDS011;15388;42.238;24.684;2023-02-01T22:18:38;7.93;;;3.90;;
28078;SDS011;15388;42.238;24.684;2023-02-01T22:21:03;6.75;;;4.45;;
28078;SDS011;15388;42.238;24.684;2023-02-01T22:23:29;7.13;;;3.70;;
28078;SDS011;15388;42.238;24.684;2023-02-01T22:25:58;8.18;;;3.80;;
28078;SDS011;15388;42.238;24.684;2023-02-01T22:28:23;5.43;;;4.25;;
28078;SDS011;15388;42.238;24.684;2023-02-01T22:30:48;6.82;;;4.60;;
28078;SDS011;15388;42.238;24.684;2023-02-01T22:33:14;7.63;;;4.53;;
28078;SDS011;15388;42.238;24.684;2023-02-01T22:35:39;10.85;;;3.90;;
28078;SDS011;15388;42.238;24.684;2023-02-01T22:38:04;7.15;;;3.83;;
28078;SDS011;15388;42.238;24.684;2023-02-01T22:40:30;6.85;;;2.90;;
28078;SDS011;15388;42.238;24.684;2023-02-01T22:42:55;7.93;;;4.05;;
28078;SDS011;15388;42.238;24.684;2023-02-01T22:45:20;13.10;;;5.88;;
28078;SDS011;15388;42.238;24.684;2023-02-01T22:47:47;12.05;;;6.32;;
28078;SDS011;15388;42.238;24.684;2023-02-01T22:50:12;10.77;;;5.97;;
28078;SDS011;15388;42.238;24.684;2023-02-01T22:52:38;9.40;;;5.80;;
28078;SDS011;15388;42.238;24.684;2023-02-01T22:55:04;12.05;;;5.28;;
28078;SDS011;15388;42.238;24.684;2023-02-01T22:57:29;9.20;;;5.25;;
28078;SDS011;15388;42.238;24.684;2023-02-01T22:59:55;7.70;;;4.13;;
28078;SDS011;15388;42.238;24.684;2023-02-01T23:02:20;10.90;;;5.05;;
28078;SDS011;15388;42.238;24.684;2023-02-01T23:04:45;6.65;;;3.53;;
28078;SDS011;15388;42.238;24.684;2023-02-01T23:07:11;11.43;;;5.93;;
28078;SDS011;15388;42.238;24.684;2023-02-01T23:09:36;15.90;;;6.75;;
28078;SDS011;15388;42.238;24.684;2023-02-01T23:12:01;9.73;;;4.55;;
28078;SDS011;15388;42.238;24.684;2023-02-01T23:14:26;10.55;;;5.38;;
28078;SDS011;15388;42.238;24.684;2023-02-01T23:16:52;7.97;;;4.07;;
28078;SDS011;15388;42.238;24.684;2023-02-01T23:19:17;7.70;;;4.10;;
28078;SDS011;15388;42.238;24.684;2023-02-01T23:21:44;6.97;;;3.67;;
28078;SDS011;15388;42.238;24.684;2023-02-01T23:24:09;9.07;;;3.20;;
28078;SDS011;15388;42.238;24.684;2023-02-01T23:26:35;5.65;;;3.13;;
28078;SDS011;15388;42.238;24.684;2023-02-01T23:29:00;8.15;;;3.17;;
28078;SDS011;15388;42.238;24.684;2023-02-01T23:31:27;3.40;;;2.15;;
28078;SDS011;15388;42.238;24.684;2023-02-01T23:33:54;6.22;;;3.65;;
28078;SDS011;15388;42.238;24.684;2023-02-01T23:36:21;6.43;;;3.17;;
28078;SDS011;15388;42.238;24.684;2023-02-01T23:38:46;11.68;;;3.45;;
28078;SDS011;15388;42.238;24.684;2023-02-01T23:41:12;22.20;;;7.65;;
28078;SDS011;15388;42.238;24.684;2023-02-01T23:43:38;11.90;;;5.45;;
28078;SDS011;15388;42.238;24.684;2023-02-01T23:46:22;6.05;;;3.90;;
28078;SDS011;15388;42.238;24.684;2023-02-01T23:48:48;12.32;;;6.40;;
28078;SDS011;15388;42.238;24.684;2023-02-01T23:51:15;21.63;;;10.52;;
28078;SDS011;15388;42.238;24.684;2023-02-01T23:53:40;21.80;;;9.20;;
28078;SDS011;15388;42.238;24.684;2023-02-01T23:56:05;14.18;;;5.68;;
28078;SDS011;15388;42.238;24.684;2023-02-01T23:58:31;6.60;;;4.60;;
